sensor_id;sensor_type;location;lat;lon;timestamp;P1;durP1;ratioP1;P2;durP2;ratioP2
35602;SDS011;21725;50.836;4.368;2022-07-23T00:02:21;15.23;;;11.75;;
35602;SDS011;21725;50.836;4.368;2022-07-23T00:04:47;24.10;;;13.20;;
35602;SDS011;21725;50.836;4.368;2022-07-23T00:07:13;16.65;;;12.55;;
35602;SDS011;21725;50.836;4.368;2022-07-23T00:09:39;13.73;;;11.98;;
35602;SDS011;21725;50.836;4.368;2022-07-23T00:12:14;16.58;;;12.27;;
35602;SDS011;21725;50.836;4.368;2022-07-23T00:14:40;14.30;;;12.32;;
35602;SDS011;21725;50.836;4.368;2022-07-23T00:17:07;22.52;;;15.30;;
35602;SDS011;21725;50.836;4.368;2022-07-23T00:19:50;15.30;;;13.60;;
35602;SDS011;21725;50.836;4.368;2022-07-23T00:22:16;14.48;;;12.65;;
35602;SDS011;21725;50.836;4.368;2022-07-23T00:24:44;17.33;;;14.07;;
35602;SDS011;21725;50.836;4.368;2022-07-23T00:27:10;15.60;;;13.65;;
35602;SDS011;21725;50.836;4.368;2022-07-23T00:29:36;15.57;;;13.68;;
35602;SDS011;21725;50.836;4.368;2022-07-23T00:32:01;17.35;;;13.88;;
35602;SDS011;21725;50.836;4.368;2022-07-23T00:34:30;17.05;;;13.30;;
35602;SDS011;21725;50.836;4.368;2022-07-23T00:36:56;16.35;;;10.40;;
35602;SDS011;21725;50.836;4.368;2022-07-23T00:39:22;18.27;;;13.45;;
35602;SDS011;21725;50.836;4.368;2022-07-23T00:41:48;16.25;;;14.18;;
35602;SDS011;21725;50.836;4.368;2022-07-23T00:44:24;17.85;;;14.00;;
35602;SDS011;21725;50.836;4.368;2022-07-23T00:46:53;16.85;;;12.90;;
35602;SDS011;21725;50.836;4.368;2022-07-23T00:49:29;19.85;;;13.38;;
35602;SDS011;21725;50.836;4.368;2022-07-23T00:51:56;16.85;;;14.13;;
35602;SDS011;21725;50.836;4.368;2022-07-23T00:54:24;17.60;;;13.23;;
35602;SDS011;21725;50.836;4.368;2022-07-23T00:56:51;16.80;;;13.70;;
35602;SDS011;21725;50.836;4.368;2022-07-23T00:59:18;18.50;;;13.73;;
35602;SDS011;21725;50.836;4.368;2022-07-23T01:01:54;21.88;;;13.38;;
35602;SDS011;21725;50.836;4.368;2022-07-23T01:04:20;16.25;;;13.05;;
35602;SDS011;21725;50.836;4.368;2022-07-23T01:06:46;16.27;;;13.07;;
35602;SDS011;21725;50.836;4.368;2022-07-23T01:09:19;15.52;;;13.85;;
35602;SDS011;21725;50.836;4.368;2022-07-23T01:11:44;20.35;;;15.88;;
35602;SDS011;21725;50.836;4.368;2022-07-23T01:14:21;19.40;;;14.80;;
35602;SDS011;21725;50.836;4.368;2022-07-23T01:17:10;17.13;;;14.77;;
35602;SDS011;21725;50.836;4.368;2022-07-23T01:19:36;20.75;;;15.25;;
35602;SDS011;21725;50.836;4.368;2022-07-23T01:22:03;21.02;;;14.68;;
35602;SDS011;21725;50.836;4.368;2022-07-23T01:24:30;22.10;;;14.00;;
35602;SDS011;21725;50.836;4.368;2022-07-23T01:26:56;19.83;;;15.40;;
35602;SDS011;21725;50.836;4.368;2022-07-23T01:29:22;16.88;;;14.00;;
35602;SDS011;21725;50.836;4.368;2022-07-23T01:31:48;18.55;;;15.32;;
35602;SDS011;21725;50.836;4.368;2022-07-23T01:34:15;18.00;;;14.95;;
35602;SDS011;21725;50.836;4.368;2022-07-23T01:36:42;16.73;;;14.75;;
35602;SDS011;21725;50.836;4.368;2022-07-23T01:39:10;17.98;;;14.52;;
35602;SDS011;21725;50.836;4.368;2022-07-23T01:41:38;18.05;;;14.13;;
35602;SDS011;21725;50.836;4.368;2022-07-23T01:44:07;20.40;;;15.38;;
35602;SDS011;21725;50.836;4.368;2022-07-23T01:46:33;23.58;;;14.18;;
35602;SDS011;21725;50.836;4.368;2022-07-23T01:49:00;15.98;;;12.90;;
35602;SDS011;21725;50.836;4.368;2022-07-23T01:51:26;16.00;;;13.63;;
35602;SDS011;21725;50.836;4.368;2022-07-23T01:53:55;15.20;;;13.53;;
35602;SDS011;21725;50.836;4.368;2022-07-23T01:56:21;21.83;;;13.70;;
35602;SDS011;21725;50.836;4.368;2022-07-23T01:58:50;18.92;;;14.65;;
35602;SDS011;21725;50.836;4.368;2022-07-23T02:01:15;16.63;;;13.45;;
35602;SDS011;21725;50.836;4.368;2022-07-23T02:03:46;21.65;;;16.90;;
35602;SDS011;21725;50.836;4.368;2022-07-23T02:06:22;23.27;;;16.58;;
35602;SDS011;21725;50.836;4.368;2022-07-23T02:08:49;19.83;;;15.02;;
35602;SDS011;21725;50.836;4.368;2022-07-23T02:11:16;19.85;;;14.65;;
35602;SDS011;21725;50.836;4.368;2022-07-23T02:13:42;20.00;;;15.18;;
35602;SDS011;21725;50.836;4.368;2022-07-23T02:16:08;21.25;;;14.48;;
35602;SDS011;21725;50.836;4.368;2022-07-23T02:18:35;19.80;;;15.52;;
35602;SDS011;21725;50.836;4.368;2022-07-23T02:21:03;20.80;;;16.13;;
35602;SDS011;21725;50.836;4.368;2022-07-23T02:23:29;23.60;;;17.60;;
35602;SDS011;21725;50.836;4.368;2022-07-23T02:25:55;19.67;;;15.88;;
35602;SDS011;21725;50.836;4.368;2022-07-23T02:28:21;23.52;;;16.70;;
35602;SDS011;21725;50.836;4.368;2022-07-23T02:30:47;22.55;;;15.98;;
35602;SDS011;21725;50.836;4.368;2022-07-23T02:33:21;18.08;;;13.65;;
35602;SDS011;21725;50.836;4.368;2022-07-23T02:36:02;19.23;;;16.35;;
35602;SDS011;21725;50.836;4.368;2022-07-23T02:38:28;19.63;;;14.93;;
35602;SDS011;21725;50.836;4.368;2022-07-23T02:40:54;21.42;;;14.98;;
35602;SDS011;21725;50.836;4.368;2022-07-23T02:43:20;19.83;;;16.02;;
35602;SDS011;21725;50.836;4.368;2022-07-23T02:45:59;19.20;;;15.45;;
35602;SDS011;21725;50.836;4.368;2022-07-23T02:48:25;16.23;;;13.52;;
35602;SDS011;21725;50.836;4.368;2022-07-23T02:51:02;20.45;;;16.73;;
35602;SDS011;21725;50.836;4.368;2022-07-23T02:53:27;28.52;;;16.73;;
35602;SDS011;21725;50.836;4.368;2022-07-23T02:55:53;24.92;;;15.43;;
35602;SDS011;21725;50.836;4.368;2022-07-23T02:58:22;19.65;;;14.25;;
35602;SDS011;21725;50.836;4.368;2022-07-23T03:00:50;14.88;;;12.30;;
35602;SDS011;21725;50.836;4.368;2022-07-23T03:03:22;21.38;;;15.98;;
35602;SDS011;21725;50.836;4.368;2022-07-23T03:05:49;24.65;;;18.58;;
35602;SDS011;21725;50.836;4.368;2022-07-23T03:08:20;24.20;;;14.85;;
35602;SDS011;21725;50.836;4.368;2022-07-23T03:10:55;20.77;;;16.08;;
35602;SDS011;21725;50.836;4.368;2022-07-23T03:13:20;19.90;;;16.42;;
35602;SDS011;21725;50.836;4.368;2022-07-23T03:15:48;21.92;;;16.10;;
35602;SDS011;21725;50.836;4.368;2022-07-23T03:18:24;19.15;;;15.93;;
35602;SDS011;21725;50.836;4.368;2022-07-23T03:20:50;21.10;;;14.82;;
35602;SDS011;21725;50.836;4.368;2022-07-23T03:23:18;18.23;;;13.90;;
35602;SDS011;21725;50.836;4.368;2022-07-23T03:25:44;16.23;;;13.90;;
35602;SDS011;21725;50.836;4.368;2022-07-23T03:28:13;16.98;;;13.73;;
35602;SDS011;21725;50.836;4.368;2022-07-23T03:30:43;17.45;;;13.30;;
35602;SDS011;21725;50.836;4.368;2022-07-23T03:33:13;18.23;;;13.93;;
35602;SDS011;21725;50.836;4.368;2022-07-23T03:35:39;19.45;;;13.65;;
35602;SDS011;21725;50.836;4.368;2022-07-23T03:38:05;15.57;;;13.38;;
35602;SDS011;21725;50.836;4.368;2022-07-23T03:40:31;18.80;;;13.52;;
35602;SDS011;21725;50.836;4.368;2022-07-23T03:42:57;22.95;;;14.48;;
35602;SDS011;21725;50.836;4.368;2022-07-23T03:45:22;16.20;;;12.32;;
35602;SDS011;21725;50.836;4.368;2022-07-23T03:47:48;18.48;;;13.85;;
35602;SDS011;21725;50.836;4.368;2022-07-23T03:50:14;22.55;;;13.18;;
35602;SDS011;21725;50.836;4.368;2022-07-23T03:52:39;19.45;;;14.00;;
35602;SDS011;21725;50.836;4.368;2022-07-23T03:55:05;21.23;;;14.10;;
35602;SDS011;21725;50.836;4.368;2022-07-23T03:57:32;17.95;;;13.77;;
35602;SDS011;21725;50.836;4.368;2022-07-23T03:59:57;17.48;;;14.85;;
35602;SDS011;21725;50.836;4.368;2022-07-23T04:02:23;13.95;;;12.45;;
35602;SDS011;21725;50.836;4.368;2022-07-23T04:04:49;14.48;;;12.98;;
35602;SDS011;21725;50.836;4.368;2022-07-23T04:29:55;18.08;;;15.07;;
35602;SDS011;21725;50.836;4.368;2022-07-23T04:32:21;21.02;;;15.60;;
35602;SDS011;21725;50.836;4.368;2022-07-23T04:34:46;21.98;;;16.50;;
35602;SDS011;21725;50.836;4.368;2022-07-23T04:37:12;21.13;;;15.50;;
35602;SDS011;21725;50.836;4.368;2022-07-23T04:39:46;21.58;;;15.73;;
35602;SDS011;21725;50.836;4.368;2022-07-23T04:42:12;17.67;;;14.50;;
35602;SDS011;21725;50.836;4.368;2022-07-23T04:44:38;21.58;;;15.60;;
35602;SDS011;21725;50.836;4.368;2022-07-23T04:47:11;21.83;;;15.32;;
35602;SDS011;21725;50.836;4.368;2022-07-23T04:49:44;17.95;;;14.20;;
35602;SDS011;21725;50.836;4.368;2022-07-23T04:52:10;20.25;;;14.10;;
35602;SDS011;21725;50.836;4.368;2022-07-23T04:54:47;16.58;;;12.98;;
35602;SDS011;21725;50.836;4.368;2022-07-23T04:57:16;17.73;;;13.55;;
35602;SDS011;21725;50.836;4.368;2022-07-23T04:59:45;16.88;;;13.20;;
35602;SDS011;21725;50.836;4.368;2022-07-23T05:02:12;21.30;;;13.40;;
35602;SDS011;21725;50.836;4.368;2022-07-23T05:04:38;16.42;;;13.55;;
35602;SDS011;21725;50.836;4.368;2022-07-23T05:07:07;17.23;;;12.00;;
35602;SDS011;21725;50.836;4.368;2022-07-23T05:09:32;15.68;;;12.27;;
35602;SDS011;21725;50.836;4.368;2022-07-23T05:12:00;19.52;;;12.82;;
35602;SDS011;21725;50.836;4.368;2022-07-23T05:14:26;18.23;;;12.77;;
35602;SDS011;21725;50.836;4.368;2022-07-23T05:17:00;13.57;;;11.18;;
35602;SDS011;21725;50.836;4.368;2022-07-23T05:19:26;18.27;;;12.02;;
35602;SDS011;21725;50.836;4.368;2022-07-23T05:21:52;17.35;;;12.20;;
35602;SDS011;21725;50.836;4.368;2022-07-23T05:24:22;16.52;;;11.55;;
35602;SDS011;21725;50.836;4.368;2022-07-23T05:26:49;18.98;;;12.10;;
35602;SDS011;21725;50.836;4.368;2022-07-23T05:29:26;14.45;;;11.15;;
35602;SDS011;21725;50.836;4.368;2022-07-23T05:31:53;15.55;;;11.52;;
35602;SDS011;21725;50.836;4.368;2022-07-23T05:34:18;14.88;;;11.18;;
35602;SDS011;21725;50.836;4.368;2022-07-23T05:36:51;17.88;;;11.85;;
35602;SDS011;21725;50.836;4.368;2022-07-23T05:39:20;17.88;;;11.30;;
35602;SDS011;21725;50.836;4.368;2022-07-23T05:41:49;14.13;;;11.55;;
35602;SDS011;21725;50.836;4.368;2022-07-23T05:44:14;15.90;;;11.23;;
35602;SDS011;21725;50.836;4.368;2022-07-23T05:46:45;14.70;;;11.63;;
35602;SDS011;21725;50.836;4.368;2022-07-23T05:49:11;14.98;;;11.32;;
35602;SDS011;21725;50.836;4.368;2022-07-23T05:51:43;15.95;;;10.88;;
35602;SDS011;21725;50.836;4.368;2022-07-23T05:54:10;14.25;;;11.63;;
35602;SDS011;21725;50.836;4.368;2022-07-23T05:56:36;13.13;;;11.63;;
35602;SDS011;21725;50.836;4.368;2022-07-23T05:59:02;16.25;;;11.80;;
35602;SDS011;21725;50.836;4.368;2022-07-23T06:01:28;15.55;;;11.70;;
35602;SDS011;21725;50.836;4.368;2022-07-23T06:03:53;17.17;;;11.13;;
35602;SDS011;21725;50.836;4.368;2022-07-23T06:06:19;17.08;;;10.90;;
35602;SDS011;21725;50.836;4.368;2022-07-23T06:08:51;17.40;;;11.05;;
35602;SDS011;21725;50.836;4.368;2022-07-23T06:11:17;13.55;;;10.32;;
35602;SDS011;21725;50.836;4.368;2022-07-23T06:13:43;14.57;;;10.48;;
35602;SDS011;21725;50.836;4.368;2022-07-23T06:16:09;15.13;;;10.85;;
35602;SDS011;21725;50.836;4.368;2022-07-23T06:18:39;14.88;;;10.73;;
35602;SDS011;21725;50.836;4.368;2022-07-23T06:21:05;12.77;;;9.30;;
35602;SDS011;21725;50.836;4.368;2022-07-23T06:23:31;14.68;;;10.68;;
35602;SDS011;21725;50.836;4.368;2022-07-23T06:25:57;15.80;;;11.77;;
35602;SDS011;21725;50.836;4.368;2022-07-23T06:28:24;14.65;;;10.38;;
35602;SDS011;21725;50.836;4.368;2022-07-23T06:30:54;13.48;;;10.80;;
35602;SDS011;21725;50.836;4.368;2022-07-23T06:33:20;14.48;;;11.07;;
35602;SDS011;21725;50.836;4.368;2022-07-23T06:35:49;12.73;;;9.60;;
35602;SDS011;21725;50.836;4.368;2022-07-23T06:38:24;13.27;;;9.63;;
35602;SDS011;21725;50.836;4.368;2022-07-23T06:40:50;14.68;;;10.20;;
35602;SDS011;21725;50.836;4.368;2022-07-23T06:43:22;14.68;;;9.70;;
35602;SDS011;21725;50.836;4.368;2022-07-23T06:45:47;16.45;;;9.70;;
35602;SDS011;21725;50.836;4.368;2022-07-23T06:48:17;17.35;;;9.73;;
35602;SDS011;21725;50.836;4.368;2022-07-23T06:50:50;25.90;;;10.23;;
35602;SDS011;21725;50.836;4.368;2022-07-23T06:53:18;14.70;;;10.30;;
35602;SDS011;21725;50.836;4.368;2022-07-23T06:55:53;13.23;;;9.90;;
35602;SDS011;21725;50.836;4.368;2022-07-23T06:58:19;11.13;;;8.82;;
35602;SDS011;21725;50.836;4.368;2022-07-23T07:00:45;12.90;;;9.38;;
35602;SDS011;21725;50.836;4.368;2022-07-23T07:03:16;13.85;;;9.15;;
35602;SDS011;21725;50.836;4.368;2022-07-23T07:05:45;15.15;;;9.30;;
35602;SDS011;21725;50.836;4.368;2022-07-23T07:08:10;14.30;;;9.90;;
35602;SDS011;21725;50.836;4.368;2022-07-23T07:10:42;14.63;;;10.00;;
35602;SDS011;21725;50.836;4.368;2022-07-23T07:13:20;16.58;;;9.63;;
35602;SDS011;21725;50.836;4.368;2022-07-23T07:15:45;11.85;;;10.52;;
35602;SDS011;21725;50.836;4.368;2022-07-23T07:18:17;14.10;;;9.35;;
35602;SDS011;21725;50.836;4.368;2022-07-23T07:20:44;16.33;;;10.98;;
35602;SDS011;21725;50.836;4.368;2022-07-23T07:23:11;16.67;;;9.85;;
35602;SDS011;21725;50.836;4.368;2022-07-23T07:26:07;13.98;;;11.77;;
35602;SDS011;21725;50.836;4.368;2022-07-23T07:28:35;18.33;;;10.50;;
35602;SDS011;21725;50.836;4.368;2022-07-23T07:31:00;11.23;;;9.45;;
35602;SDS011;21725;50.836;4.368;2022-07-23T07:33:26;12.35;;;10.18;;
35602;SDS011;21725;50.836;4.368;2022-07-23T07:35:58;14.18;;;11.50;;
35602;SDS011;21725;50.836;4.368;2022-07-23T07:38:26;11.68;;;10.10;;
35602;SDS011;21725;50.836;4.368;2022-07-23T07:40:51;16.38;;;10.57;;
35602;SDS011;21725;50.836;4.368;2022-07-23T07:43:25;12.05;;;9.73;;
35602;SDS011;21725;50.836;4.368;2022-07-23T07:45:50;13.77;;;10.75;;
35602;SDS011;21725;50.836;4.368;2022-07-23T07:48:16;14.55;;;8.65;;
35602;SDS011;21725;50.836;4.368;2022-07-23T07:50:42;15.48;;;9.13;;
35602;SDS011;21725;50.836;4.368;2022-07-23T07:53:07;14.80;;;9.77;;
35602;SDS011;21725;50.836;4.368;2022-07-23T07:55:34;11.45;;;8.90;;
35602;SDS011;21725;50.836;4.368;2022-07-23T07:58:00;11.90;;;9.00;;
35602;SDS011;21725;50.836;4.368;2022-07-23T08:00:26;13.35;;;9.20;;
35602;SDS011;21725;50.836;4.368;2022-07-23T08:02:52;14.05;;;8.95;;
35602;SDS011;21725;50.836;4.368;2022-07-23T08:05:23;11.55;;;9.07;;
35602;SDS011;21725;50.836;4.368;2022-07-23T08:07:50;13.35;;;8.40;;
35602;SDS011;21725;50.836;4.368;2022-07-23T08:10:18;14.75;;;9.13;;
35602;SDS011;21725;50.836;4.368;2022-07-23T08:12:46;13.50;;;8.05;;
35602;SDS011;21725;50.836;4.368;2022-07-23T08:15:14;13.70;;;8.35;;
35602;SDS011;21725;50.836;4.368;2022-07-23T08:17:50;13.05;;;8.45;;
35602;SDS011;21725;50.836;4.368;2022-07-23T08:20:17;16.02;;;10.10;;
35602;SDS011;21725;50.836;4.368;2022-07-23T08:22:49;13.90;;;10.02;;
35602;SDS011;21725;50.836;4.368;2022-07-23T08:25:23;10.27;;;8.55;;
35602;SDS011;21725;50.836;4.368;2022-07-23T08:27:54;11.70;;;8.60;;
35602;SDS011;21725;50.836;4.368;2022-07-23T08:30:22;11.35;;;8.55;;
35602;SDS011;21725;50.836;4.368;2022-07-23T08:33:08;11.80;;;8.88;;
35602;SDS011;21725;50.836;4.368;2022-07-23T08:35:50;14.75;;;9.68;;
35602;SDS011;21725;50.836;4.368;2022-07-23T08:38:19;15.80;;;10.32;;
35602;SDS011;21725;50.836;4.368;2022-07-23T08:40:50;13.73;;;8.70;;
35602;SDS011;21725;50.836;4.368;2022-07-23T08:43:35;16.90;;;8.40;;
35602;SDS011;21725;50.836;4.368;2022-07-23T08:46:01;12.60;;;10.48;;
35602;SDS011;21725;50.836;4.368;2022-07-23T08:48:30;15.95;;;10.07;;
35602;SDS011;21725;50.836;4.368;2022-07-23T08:51:05;14.13;;;8.98;;
35602;SDS011;21725;50.836;4.368;2022-07-23T08:53:33;14.10;;;9.60;;
35602;SDS011;21725;50.836;4.368;2022-07-23T08:56:17;13.80;;;9.18;;
35602;SDS011;21725;50.836;4.368;2022-07-23T08:58:43;13.15;;;8.60;;
35602;SDS011;21725;50.836;4.368;2022-07-23T09:01:10;12.15;;;8.55;;
35602;SDS011;21725;50.836;4.368;2022-07-23T09:03:36;12.63;;;8.23;;
35602;SDS011;21725;50.836;4.368;2022-07-23T09:06:14;22.38;;;10.85;;
35602;SDS011;21725;50.836;4.368;2022-07-23T09:08:42;13.82;;;7.95;;
35602;SDS011;21725;50.836;4.368;2022-07-23T09:11:13;17.40;;;7.50;;
35602;SDS011;21725;50.836;4.368;2022-07-23T09:13:47;10.32;;;7.93;;
35602;SDS011;21725;50.836;4.368;2022-07-23T09:16:20;11.57;;;8.63;;
35602;SDS011;21725;50.836;4.368;2022-07-23T09:18:53;12.23;;;8.50;;
35602;SDS011;21725;50.836;4.368;2022-07-23T09:21:26;16.52;;;8.05;;
35602;SDS011;21725;50.836;4.368;2022-07-23T09:29:26;14.70;;;8.15;;
35602;SDS011;21725;50.836;4.368;2022-07-23T09:31:52;18.75;;;9.50;;
35602;SDS011;21725;50.836;4.368;2022-07-23T09:34:24;14.10;;;8.88;;
35602;SDS011;21725;50.836;4.368;2022-07-23T09:36:51;15.05;;;8.45;;
35602;SDS011;21725;50.836;4.368;2022-07-23T09:39:45;22.65;;;8.18;;
35602;SDS011;21725;50.836;4.368;2022-07-23T09:42:18;11.32;;;8.18;;
35602;SDS011;21725;50.836;4.368;2022-07-23T09:44:49;12.35;;;8.07;;
35602;SDS011;21725;50.836;4.368;2022-07-23T09:47:23;10.68;;;7.47;;
35602;SDS011;21725;50.836;4.368;2022-07-23T09:50:19;10.38;;;7.72;;
35602;SDS011;21725;50.836;4.368;2022-07-23T09:52:47;14.10;;;8.20;;
35602;SDS011;21725;50.836;4.368;2022-07-23T09:55:16;11.63;;;7.30;;
35602;SDS011;21725;50.836;4.368;2022-07-23T09:58:06;14.70;;;7.70;;
35602;SDS011;21725;50.836;4.368;2022-07-23T10:00:37;13.05;;;7.43;;
35602;SDS011;21725;50.836;4.368;2022-07-23T10:03:17;8.50;;;6.70;;
35602;SDS011;21725;50.836;4.368;2022-07-23T10:32:02;8.52;;;6.00;;
35602;SDS011;21725;50.836;4.368;2022-07-23T10:37:51;11.77;;;7.15;;
35602;SDS011;21725;50.836;4.368;2022-07-23T10:40:27;8.55;;;5.93;;
35602;SDS011;21725;50.836;4.368;2022-07-23T10:43:02;8.18;;;5.80;;
35602;SDS011;21725;50.836;4.368;2022-07-23T10:45:42;16.45;;;7.35;;
35602;SDS011;21725;50.836;4.368;2022-07-23T10:48:26;9.93;;;7.03;;
35602;SDS011;21725;50.836;4.368;2022-07-23T10:53:57;11.75;;;6.18;;
35602;SDS011;21725;50.836;4.368;2022-07-23T10:59:20;6.68;;;4.60;;
35602;SDS011;21725;50.836;4.368;2022-07-23T11:01:52;9.00;;;6.70;;
35602;SDS011;21725;50.836;4.368;2022-07-23T11:04:22;11.68;;;6.20;;
35602;SDS011;21725;50.836;4.368;2022-07-23T11:07:33;10.27;;;6.18;;
35602;SDS011;21725;50.836;4.368;2022-07-23T11:09:59;12.68;;;6.30;;
35602;SDS011;21725;50.836;4.368;2022-07-23T11:17:30;8.77;;;5.90;;
35602;SDS011;21725;50.836;4.368;2022-07-23T11:25:07;11.55;;;6.30;;
35602;SDS011;21725;50.836;4.368;2022-07-23T11:27:38;17.10;;;9.02;;
35602;SDS011;21725;50.836;4.368;2022-07-23T11:30:51;10.73;;;5.65;;
35602;SDS011;21725;50.836;4.368;2022-07-23T11:32:52;10.93;;;6.80;;
35602;SDS011;21725;50.836;4.368;2022-07-23T11:35:20;10.07;;;6.55;;
35602;SDS011;21725;50.836;4.368;2022-07-23T11:37:50;14.10;;;7.15;;
35602;SDS011;21725;50.836;4.368;2022-07-23T11:40:23;10.90;;;6.90;;
35602;SDS011;21725;50.836;4.368;2022-07-23T11:43:00;12.80;;;7.65;;
35602;SDS011;21725;50.836;4.368;2022-07-23T11:50:58;8.63;;;6.25;;
35602;SDS011;21725;50.836;4.368;2022-07-23T11:56:05;11.85;;;7.15;;
35602;SDS011;21725;50.836;4.368;2022-07-23T11:58:33;11.18;;;7.05;;
35602;SDS011;21725;50.836;4.368;2022-07-23T12:00:59;9.73;;;5.57;;
35602;SDS011;21725;50.836;4.368;2022-07-23T12:03:26;8.10;;;6.00;;
35602;SDS011;21725;50.836;4.368;2022-07-23T12:05:56;8.65;;;5.80;;
35602;SDS011;21725;50.836;4.368;2022-07-23T12:08:25;8.95;;;5.38;;
35602;SDS011;21725;50.836;4.368;2022-07-23T12:10:54;6.75;;;4.88;;
35602;SDS011;21725;50.836;4.368;2022-07-23T12:13:20;7.47;;;5.70;;
35602;SDS011;21725;50.836;4.368;2022-07-23T12:18:19;7.13;;;5.20;;
35602;SDS011;21725;50.836;4.368;2022-07-23T12:20:48;10.20;;;6.32;;
35602;SDS011;21725;50.836;4.368;2022-07-23T12:23:23;10.23;;;7.72;;
35602;SDS011;21725;50.836;4.368;2022-07-23T12:25:50;10.20;;;6.78;;
35602;SDS011;21725;50.836;4.368;2022-07-23T12:31:11;8.60;;;6.95;;
35602;SDS011;21725;50.836;4.368;2022-07-23T12:33:38;12.57;;;7.57;;
35602;SDS011;21725;50.836;4.368;2022-07-23T12:36:05;9.68;;;6.85;;
35602;SDS011;21725;50.836;4.368;2022-07-23T12:38:43;11.17;;;7.00;;
35602;SDS011;21725;50.836;4.368;2022-07-23T12:41:14;10.48;;;6.32;;
35602;SDS011;21725;50.836;4.368;2022-07-23T12:43:43;11.43;;;7.53;;
35602;SDS011;21725;50.836;4.368;2022-07-23T12:46:12;10.43;;;6.80;;
35602;SDS011;21725;50.836;4.368;2022-07-23T12:51:24;17.63;;;7.55;;
35602;SDS011;21725;50.836;4.368;2022-07-23T12:53:51;9.68;;;7.68;;
35602;SDS011;21725;50.836;4.368;2022-07-23T12:58:57;10.57;;;6.72;;
35602;SDS011;21725;50.836;4.368;2022-07-23T13:01:40;9.77;;;6.38;;
35602;SDS011;21725;50.836;4.368;2022-07-23T13:04:20;8.18;;;5.53;;
35602;SDS011;21725;50.836;4.368;2022-07-23T13:06:52;10.02;;;6.80;;
35602;SDS011;21725;50.836;4.368;2022-07-23T13:09:28;13.70;;;5.38;;
35602;SDS011;21725;50.836;4.368;2022-07-23T13:11:56;8.27;;;6.00;;
35602;SDS011;21725;50.836;4.368;2022-07-23T13:14:22;8.25;;;5.20;;
35602;SDS011;21725;50.836;4.368;2022-07-23T13:16:51;8.77;;;5.20;;
35602;SDS011;21725;50.836;4.368;2022-07-23T13:19:21;12.30;;;5.60;;
35602;SDS011;21725;50.836;4.368;2022-07-23T13:21:48;13.75;;;5.55;;
35602;SDS011;21725;50.836;4.368;2022-07-23T13:24:14;10.50;;;5.15;;
35602;SDS011;21725;50.836;4.368;2022-07-23T13:26:40;7.32;;;5.07;;
35602;SDS011;21725;50.836;4.368;2022-07-23T13:29:07;7.95;;;5.07;;
35602;SDS011;21725;50.836;4.368;2022-07-23T13:31:33;5.88;;;4.45;;
35602;SDS011;21725;50.836;4.368;2022-07-23T13:34:02;8.55;;;4.43;;
35602;SDS011;21725;50.836;4.368;2022-07-23T13:36:28;6.10;;;4.55;;
35602;SDS011;21725;50.836;4.368;2022-07-23T13:38:54;9.65;;;6.00;;
35602;SDS011;21725;50.836;4.368;2022-07-23T13:41:20;7.75;;;4.43;;
35602;SDS011;21725;50.836;4.368;2022-07-23T13:43:47;7.03;;;4.90;;
35602;SDS011;21725;50.836;4.368;2022-07-23T13:46:13;8.13;;;4.47;;
35602;SDS011;21725;50.836;4.368;2022-07-23T13:48:39;9.32;;;6.13;;
35602;SDS011;21725;50.836;4.368;2022-07-23T13:51:05;13.63;;;8.70;;
35602;SDS011;21725;50.836;4.368;2022-07-23T13:53:32;5.45;;;4.60;;
35602;SDS011;21725;50.836;4.368;2022-07-23T13:55:58;12.55;;;4.50;;
35602;SDS011;21725;50.836;4.368;2022-07-23T13:58:23;6.75;;;4.40;;
35602;SDS011;21725;50.836;4.368;2022-07-23T14:00:51;8.60;;;4.90;;
35602;SDS011;21725;50.836;4.368;2022-07-23T14:03:17;5.88;;;3.97;;
35602;SDS011;21725;50.836;4.368;2022-07-23T14:05:44;10.63;;;5.40;;
35602;SDS011;21725;50.836;4.368;2022-07-23T14:08:10;7.68;;;4.97;;
35602;SDS011;21725;50.836;4.368;2022-07-23T14:10:41;8.18;;;4.55;;
35602;SDS011;21725;50.836;4.368;2022-07-23T14:13:07;10.82;;;5.93;;
35602;SDS011;21725;50.836;4.368;2022-07-23T14:15:33;8.52;;;4.97;;
35602;SDS011;21725;50.836;4.368;2022-07-23T14:18:02;6.07;;;3.95;;
35602;SDS011;21725;50.836;4.368;2022-07-23T14:22:56;6.18;;;4.18;;
35602;SDS011;21725;50.836;4.368;2022-07-23T14:25:25;6.85;;;4.50;;
35602;SDS011;21725;50.836;4.368;2022-07-23T14:27:51;10.45;;;5.22;;
35602;SDS011;21725;50.836;4.368;2022-07-23T14:30:21;7.93;;;5.43;;
35602;SDS011;21725;50.836;4.368;2022-07-23T14:32:48;14.63;;;5.47;;
35602;SDS011;21725;50.836;4.368;2022-07-23T14:35:16;9.90;;;5.88;;
35602;SDS011;21725;50.836;4.368;2022-07-23T14:37:41;12.07;;;5.65;;
35602;SDS011;21725;50.836;4.368;2022-07-23T14:40:07;7.60;;;5.20;;
35602;SDS011;21725;50.836;4.368;2022-07-23T14:42:36;8.43;;;4.93;;
35602;SDS011;21725;50.836;4.368;2022-07-23T14:45:02;9.05;;;5.22;;
35602;SDS011;21725;50.836;4.368;2022-07-23T14:47:30;9.05;;;5.30;;
35602;SDS011;21725;50.836;4.368;2022-07-23T14:49:55;10.25;;;5.30;;
35602;SDS011;21725;50.836;4.368;2022-07-23T14:52:23;8.00;;;5.45;;
35602;SDS011;21725;50.836;4.368;2022-07-23T14:54:48;10.57;;;5.45;;
35602;SDS011;21725;50.836;4.368;2022-07-23T14:57:14;10.07;;;5.22;;
35602;SDS011;21725;50.836;4.368;2022-07-23T14:59:45;7.72;;;4.75;;
35602;SDS011;21725;50.836;4.368;2022-07-23T15:02:11;6.20;;;4.72;;
35602;SDS011;21725;50.836;4.368;2022-07-23T15:04:37;9.35;;;5.18;;
35602;SDS011;21725;50.836;4.368;2022-07-23T15:07:03;8.63;;;3.92;;
35602;SDS011;21725;50.836;4.368;2022-07-23T15:09:28;7.70;;;5.13;;
35602;SDS011;21725;50.836;4.368;2022-07-23T15:11:54;6.53;;;4.15;;
35602;SDS011;21725;50.836;4.368;2022-07-23T15:14:20;8.60;;;4.93;;
35602;SDS011;21725;50.836;4.368;2022-07-23T15:16:46;9.15;;;4.65;;
35602;SDS011;21725;50.836;4.368;2022-07-23T15:19:12;9.10;;;5.10;;
35602;SDS011;21725;50.836;4.368;2022-07-23T15:21:38;12.27;;;9.05;;
35602;SDS011;21725;50.836;4.368;2022-07-23T15:24:03;8.20;;;5.85;;
35602;SDS011;21725;50.836;4.368;2022-07-23T15:26:30;8.63;;;7.22;;
35602;SDS011;21725;50.836;4.368;2022-07-23T15:28:56;9.95;;;5.10;;
35602;SDS011;21725;50.836;4.368;2022-07-23T15:31:23;8.53;;;4.63;;
35602;SDS011;21725;50.836;4.368;2022-07-23T15:33:50;7.97;;;4.90;;
35602;SDS011;21725;50.836;4.368;2022-07-23T15:36:19;6.32;;;5.00;;
35602;SDS011;21725;50.836;4.368;2022-07-23T15:38:45;9.48;;;5.35;;
35602;SDS011;21725;50.836;4.368;2022-07-23T15:41:11;9.73;;;4.53;;
35602;SDS011;21725;50.836;4.368;2022-07-23T15:43:37;7.90;;;6.05;;
35602;SDS011;21725;50.836;4.368;2022-07-23T15:46:03;9.15;;;5.75;;
35602;SDS011;21725;50.836;4.368;2022-07-23T15:48:30;6.63;;;4.97;;
35602;SDS011;21725;50.836;4.368;2022-07-23T15:50:56;8.52;;;4.85;;
35602;SDS011;21725;50.836;4.368;2022-07-23T15:53:22;7.68;;;5.38;;
35602;SDS011;21725;50.836;4.368;2022-07-23T15:55:51;10.25;;;6.13;;
35602;SDS011;21725;50.836;4.368;2022-07-23T15:58:16;6.63;;;3.63;;
35602;SDS011;21725;50.836;4.368;2022-07-23T16:00:42;6.75;;;4.47;;
35602;SDS011;21725;50.836;4.368;2022-07-23T16:03:15;5.90;;;4.55;;
35602;SDS011;21725;50.836;4.368;2022-07-23T16:28:32;14.80;;;6.45;;
35602;SDS011;21725;50.836;4.368;2022-07-23T16:31:04;16.13;;;5.72;;
35602;SDS011;21725;50.836;4.368;2022-07-23T16:33:30;9.15;;;6.95;;
35602;SDS011;21725;50.836;4.368;2022-07-23T16:35:55;7.97;;;5.50;;
35602;SDS011;21725;50.836;4.368;2022-07-23T16:38:21;8.75;;;4.72;;
35602;SDS011;21725;50.836;4.368;2022-07-23T16:40:47;8.70;;;4.88;;